createdAt,value
2023-02-20T00:00:40.669Z,8.10
2023-02-20T00:01:48.108Z,8.06
2023-02-20T00:02:50.432Z,8.03
2023-02-20T00:03:52.667Z,8.03
2023-02-20T00:04:54.897Z,8.06
2023-02-20T00:05:57.259Z,8.00
2023-02-20T00:06:59.411Z,8.01
2023-02-20T00:08:02.017Z,7.98
2023-02-20T00:09:04.280Z,8.02
2023-02-20T00:10:07.219Z,8.05
2023-02-20T00:11:09.617Z,7.97
2023-02-20T00:12:11.802Z,8.00
2023-02-20T00:13:14.002Z,8.03
2023-02-20T00:14:16.267Z,7.96
2023-02-20T00:15:19.823Z,7.97
2023-02-20T00:16:21.997Z,8.01
2023-02-20T00:17:24.266Z,7.95
2023-02-20T00:18:26.574Z,7.98
2023-02-20T00:19:28.851Z,7.96
2023-02-20T00:20:31.942Z,8.04
2023-02-20T00:21:34.189Z,7.96
2023-02-20T00:22:36.389Z,7.86
2023-02-20T00:23:38.721Z,7.89
2023-02-20T00:24:41.625Z,7.91
2023-02-20T00:25:43.856Z,8.05
2023-02-20T00:26:51.140Z,8.09
2023-02-20T00:27:53.511Z,7.94
2023-02-20T00:28:55.717Z,7.78
2023-02-20T00:29:57.944Z,7.87
2023-02-20T00:31:00.272Z,8.02
2023-02-20T00:32:02.923Z,7.86
2023-02-20T00:33:08.042Z,7.90
2023-02-20T00:34:10.339Z,7.81
2023-02-20T00:35:12.709Z,7.82
2023-02-20T00:36:17.213Z,7.78
2023-02-20T00:37:19.924Z,7.71
2023-02-20T00:38:22.220Z,7.81
2023-02-20T00:39:24.476Z,7.65
2023-02-20T00:40:26.937Z,7.53
2023-02-20T00:41:29.225Z,7.44
2023-02-20T00:42:31.497Z,7.41
2023-02-20T00:43:36.281Z,7.38
2023-02-20T00:44:38.928Z,7.34
2023-02-20T00:45:42.035Z,7.32
2023-02-20T00:46:44.344Z,7.31
2023-02-20T00:47:48.198Z,7.31
2023-02-20T00:48:50.911Z,7.41
2023-02-20T00:50:14.601Z,7.48
2023-02-20T00:51:17.057Z,7.50
2023-02-20T00:52:21.208Z,7.52
2023-02-20T00:53:25.112Z,7.51
2023-02-20T00:54:28.698Z,7.43
2023-02-20T00:55:31.023Z,7.37
2023-02-20T00:56:33.245Z,7.36
2023-02-20T00:57:35.548Z,7.28
2023-02-20T00:58:37.750Z,7.15
2023-02-20T00:59:40.077Z,7.26
2023-02-20T01:00:42.332Z,7.27
2023-02-20T01:01:44.661Z,7.34
2023-02-20T01:02:47.064Z,7.32
2023-02-20T01:03:49.319Z,7.50
2023-02-20T01:04:51.556Z,7.42
2023-02-20T01:05:53.765Z,7.47
2023-02-20T01:06:55.944Z,7.26
2023-02-20T01:07:58.177Z,7.27
2023-02-20T01:09:01.960Z,7.19
2023-02-20T01:10:05.037Z,7.12
2023-02-20T01:11:08.019Z,7.01
2023-02-20T01:12:11.328Z,6.98
2023-02-20T01:13:13.549Z,6.99
2023-02-20T01:14:15.922Z,6.95
2023-02-20T01:15:18.169Z,6.88
2023-02-20T01:16:20.446Z,7.03
2023-02-20T01:17:22.782Z,6.91
2023-02-20T01:18:25.364Z,6.85
2023-02-20T01:19:27.628Z,6.99
2023-02-20T01:20:29.890Z,6.95
2023-02-20T01:21:32.088Z,6.85
2023-02-20T01:22:34.316Z,6.85
2023-02-20T01:23:36.524Z,6.82
2023-02-20T01:24:38.842Z,6.84
2023-02-20T01:25:41.086Z,6.93
2023-02-20T01:26:47.762Z,6.98
2023-02-20T01:27:50.002Z,6.98
2023-02-20T01:28:52.173Z,7.06
2023-02-20T01:29:54.386Z,6.96
2023-02-20T01:30:56.601Z,6.92
2023-02-20T01:31:59.003Z,6.74
2023-02-20T01:33:01.338Z,6.78
2023-02-20T01:34:05.867Z,6.75
2023-02-20T01:35:09.024Z,6.82
2023-02-20T01:36:12.235Z,6.83
2023-02-20T01:37:15.903Z,6.88
2023-02-20T01:38:18.133Z,6.79
2023-02-20T01:39:26.084Z,6.76
2023-02-20T01:40:28.679Z,6.71
2023-02-20T01:41:30.931Z,6.70
2023-02-20T01:42:36.388Z,6.71
2023-02-20T01:43:38.613Z,6.78
2023-02-20T01:44:42.265Z,6.72
2023-02-20T01:45:44.650Z,6.77
2023-02-20T01:46:51.291Z,6.80
2023-02-20T01:47:56.825Z,6.67
2023-02-20T01:49:45.823Z,6.71
2023-02-20T01:50:50.440Z,6.70
2023-02-20T01:52:19.668Z,6.75
2023-02-20T01:53:25.655Z,6.63
2023-02-20T01:54:29.049Z,6.63
2023-02-20T01:55:43.663Z,6.70
2023-02-20T01:56:48.632Z,6.64
2023-02-20T01:58:00.761Z,6.67
2023-02-20T01:59:05.877Z,6.59
2023-02-20T02:02:11.750Z,6.46
2023-02-20T02:03:24.523Z,6.38
2023-02-20T02:04:28.088Z,6.42
2023-02-20T02:05:32.822Z,6.49
2023-02-20T02:06:40.761Z,6.51
2023-02-20T02:07:44.127Z,6.60
2023-02-20T02:08:46.749Z,6.50
2023-02-20T02:09:56.215Z,6.41
2023-02-20T02:11:19.511Z,6.34
2023-02-20T02:12:22.789Z,6.33
2023-02-20T02:13:25.110Z,6.35
2023-02-20T02:14:30.162Z,6.37
2023-02-20T02:15:32.540Z,6.37
2023-02-20T02:17:07.141Z,6.23
2023-02-20T02:18:31.469Z,6.26
2023-02-20T02:19:42.654Z,6.32
2023-02-20T02:20:46.811Z,6.25
2023-02-20T02:22:13.268Z,6.25
2023-02-20T02:23:34.193Z,6.26
2023-02-20T02:24:39.262Z,6.23
2023-02-20T02:26:00.533Z,6.22
2023-02-20T02:27:17.560Z,6.22
2023-02-20T02:28:37.827Z,6.24
2023-02-20T02:29:48.404Z,6.25
2023-02-20T02:31:16.928Z,6.19
2023-02-20T02:32:49.039Z,6.20
2023-02-20T02:34:20.642Z,6.16
2023-02-20T02:35:42.445Z,6.15
2023-02-20T02:37:07.945Z,6.26
2023-02-20T02:38:31.639Z,6.21
2023-02-20T02:39:50.377Z,6.28
2023-02-20T02:41:21.635Z,6.32
2023-02-20T02:42:40.357Z,6.27
2023-02-20T02:43:57.577Z,6.20
2023-02-20T02:45:11.483Z,6.28
2023-02-20T02:46:37.286Z,6.28
2023-02-20T02:47:50.840Z,6.20
2023-02-20T02:49:01.101Z,6.24
2023-02-20T02:50:11.956Z,6.13
2023-02-20T02:51:21.918Z,6.27
2023-02-20T02:52:48.571Z,6.22
2023-02-20T02:54:10.744Z,6.22
2023-02-20T02:55:26.520Z,6.22
2023-02-20T02:56:41.627Z,6.28
2023-02-20T02:57:43.968Z,6.24
2023-02-20T02:58:46.904Z,6.29
2023-02-20T02:59:54.608Z,6.30
2023-02-20T03:01:01.949Z,6.26
2023-02-20T03:02:11.672Z,6.35
2023-02-20T03:03:19.306Z,6.26
2023-02-20T03:04:30.275Z,6.29
2023-02-20T03:05:40.141Z,6.27
2023-02-20T03:06:46.785Z,6.19
2023-02-20T03:07:53.399Z,6.17
2023-02-20T03:09:02.051Z,6.12
2023-02-20T03:10:10.224Z,6.19
2023-02-20T03:11:18.564Z,6.30
2023-02-20T03:12:22.904Z,6.26
2023-02-20T03:13:47.923Z,6.13
2023-02-20T03:15:30.871Z,6.14
2023-02-20T03:16:45.702Z,6.14
2023-02-20T03:17:52.162Z,6.08
2023-02-20T03:19:01.461Z,6.11
2023-02-20T03:20:10.524Z,6.15
2023-02-20T03:21:17.507Z,6.12
2023-02-20T03:22:25.528Z,6.10
2023-02-20T03:23:34.694Z,6.13
2023-02-20T03:24:55.181Z,6.10
2023-02-20T03:26:07.506Z,6.09
2023-02-20T03:27:09.874Z,6.09
2023-02-20T03:28:35.388Z,6.13
2023-02-20T03:29:44.430Z,6.03
2023-02-20T03:30:54.555Z,6.08
2023-02-20T03:32:22.862Z,6.07
2023-02-20T03:34:49.407Z,6.03
2023-02-20T03:36:14.514Z,6.15
2023-02-20T03:37:39.868Z,6.12
2023-02-20T03:39:05.525Z,6.13
2023-02-20T03:40:32.133Z,6.15
2023-02-20T03:41:58.346Z,6.15
2023-02-20T03:43:25.751Z,6.19
2023-02-20T03:44:33.500Z,6.29
2023-02-20T03:45:39.559Z,6.28
2023-02-20T03:46:44.379Z,6.22
2023-02-20T03:47:52.782Z,6.21
2023-02-20T03:49:04.062Z,6.20
2023-02-20T03:50:09.957Z,6.26
2023-02-20T03:51:13.639Z,6.26
2023-02-20T03:52:26.017Z,6.33
2023-02-20T03:53:28.707Z,6.25
2023-02-20T03:54:32.717Z,6.30
2023-02-20T03:55:36.756Z,6.25
2023-02-20T03:56:45.194Z,6.15
2023-02-20T03:57:53.628Z,6.19
2023-02-20T03:59:04.424Z,6.22
2023-02-20T04:00:13.633Z,6.22
2023-02-20T04:01:27.528Z,6.13
2023-02-20T04:02:33.776Z,6.26
2023-02-20T04:03:41.616Z,6.16
2023-02-20T04:04:53.314Z,6.14
2023-02-20T04:05:58.727Z,6.23
2023-02-20T04:07:15.437Z,6.28
2023-02-20T04:08:23.512Z,6.26
2023-02-20T04:09:33.074Z,6.28
2023-02-20T04:10:43.692Z,6.40
2023-02-20T04:12:01.080Z,6.43
2023-02-20T04:13:05.152Z,6.30
2023-02-20T04:14:09.382Z,6.28
2023-02-20T04:15:13.908Z,6.20
2023-02-20T04:16:17.190Z,6.20
2023-02-20T04:17:24.452Z,6.14
2023-02-20T04:18:28.202Z,6.24
2023-02-20T04:19:31.328Z,6.40
2023-02-20T04:20:33.804Z,6.41
2023-02-20T04:21:55.903Z,6.51
2023-02-20T04:23:05.717Z,6.55
2023-02-20T04:25:00.521Z,6.56
2023-02-20T04:26:12.035Z,6.58
2023-02-20T04:27:17.657Z,6.58
2023-02-20T04:28:28.455Z,6.61
2023-02-20T04:29:35.118Z,6.57
2023-02-20T04:30:37.701Z,6.51
2023-02-20T04:31:40.451Z,6.57
2023-02-20T04:32:44.933Z,6.55
2023-02-20T04:33:48.129Z,6.54
2023-02-20T04:34:57.590Z,6.49
2023-02-20T04:36:00.962Z,6.50
2023-02-20T04:37:13.077Z,6.62
2023-02-20T04:38:15.985Z,6.56
2023-02-20T04:39:18.590Z,6.51
2023-02-20T04:40:23.562Z,6.51
2023-02-20T04:41:25.829Z,6.49
2023-02-20T04:42:28.611Z,6.47
2023-02-20T04:43:36.302Z,6.39
2023-02-20T04:44:40.269Z,6.22
2023-02-20T04:45:44.961Z,6.08
2023-02-20T04:46:48.041Z,6.07
2023-02-20T04:47:51.516Z,6.11
2023-02-20T04:48:53.740Z,6.12
2023-02-20T04:49:55.948Z,6.05
2023-02-20T04:51:02.909Z,6.06
2023-02-20T04:52:07.263Z,6.04
2023-02-20T04:53:09.844Z,6.25
2023-02-20T04:54:12.611Z,6.29
2023-02-20T04:55:15.258Z,6.19
2023-02-20T04:56:18.728Z,6.16
2023-02-20T04:57:22.261Z,6.27
2023-02-20T04:58:24.598Z,6.39
2023-02-20T04:59:30.410Z,6.22
2023-02-20T05:00:32.672Z,6.18
2023-02-20T05:01:35.767Z,6.11
2023-02-20T05:02:39.145Z,6.17
2023-02-20T05:03:41.383Z,6.23
2023-02-20T05:04:43.655Z,6.34
2023-02-20T05:05:45.934Z,6.50
2023-02-20T05:06:53.529Z,6.48
2023-02-20T05:08:01.689Z,6.45
2023-02-20T05:09:05.202Z,6.34
2023-02-20T05:10:07.598Z,6.48
2023-02-20T05:11:09.943Z,6.39
2023-02-20T05:12:12.183Z,6.42
2023-02-20T05:13:14.395Z,6.51
2023-02-20T05:14:16.913Z,6.50
2023-02-20T05:15:20.156Z,6.35
2023-02-20T05:16:22.403Z,6.15
2023-02-20T05:17:24.627Z,6.34
2023-02-20T05:18:28.303Z,6.17
2023-02-20T05:19:30.526Z,6.07
2023-02-20T05:20:51.545Z,6.11
2023-02-20T05:22:12.048Z,6.02
2023-02-20T05:23:14.311Z,6.20
2023-02-20T05:24:16.982Z,6.23
2023-02-20T05:25:20.065Z,6.24
2023-02-20T05:26:22.604Z,6.10
2023-02-20T05:27:25.913Z,6.01
2023-02-20T05:28:28.116Z,5.94
2023-02-20T05:29:30.436Z,5.89
2023-02-20T05:30:32.795Z,5.84
2023-02-20T05:31:35.183Z,5.82
2023-02-20T05:32:37.625Z,5.92
2023-02-20T05:33:39.946Z,5.93
2023-02-20T05:34:43.793Z,6.02
2023-02-20T05:35:46.001Z,6.15
2023-02-20T05:36:48.838Z,6.22
2023-02-20T05:37:51.368Z,6.24
2023-02-20T05:38:53.611Z,6.19
2023-02-20T05:39:55.801Z,6.28
2023-02-20T05:40:58.004Z,6.36
2023-02-20T05:42:00.201Z,6.18
2023-02-20T05:43:02.458Z,6.21
2023-02-20T05:44:05.317Z,6.16
2023-02-20T05:45:09.141Z,5.92
2023-02-20T05:46:12.145Z,5.93
2023-02-20T05:47:14.552Z,5.89
2023-02-20T05:48:16.836Z,5.92
2023-02-20T05:49:19.323Z,5.99
2023-02-20T05:50:21.506Z,6.09
2023-02-20T05:51:28.585Z,5.99
2023-02-20T05:52:30.916Z,6.03
2023-02-20T05:53:33.403Z,6.13
2023-02-20T05:54:36.020Z,6.16
2023-02-20T05:55:38.185Z,6.14
2023-02-20T05:56:44.587Z,6.32
2023-02-20T05:57:46.840Z,6.12
2023-02-20T05:58:50.134Z,5.90
2023-02-20T05:59:52.346Z,5.94
2023-02-20T06:00:54.565Z,5.93
2023-02-20T06:01:58.738Z,5.88
2023-02-20T06:03:02.037Z,5.94
2023-02-20T06:04:04.642Z,5.97
2023-02-20T06:05:07.669Z,5.97
2023-02-20T06:06:10.136Z,6.06
2023-02-20T06:07:12.414Z,5.96
2023-02-20T06:08:14.593Z,6.00
2023-02-20T06:09:17.692Z,5.97
2023-02-20T06:10:20.280Z,6.01
2023-02-20T06:11:22.640Z,6.15
2023-02-20T06:12:24.908Z,6.02
2023-02-20T06:13:27.087Z,5.95
2023-02-20T06:14:29.301Z,5.99
2023-02-20T06:15:31.493Z,5.89
2023-02-20T06:16:34.964Z,5.86
2023-02-20T06:17:37.197Z,5.77
2023-02-20T06:18:41.016Z,5.83
2023-02-20T06:19:43.226Z,5.90
2023-02-20T06:20:45.443Z,6.08
2023-02-20T06:21:51.449Z,6.04
2023-02-20T06:22:53.707Z,6.02
2023-02-20T06:23:56.010Z,6.01
2023-02-20T06:24:58.333Z,6.06
2023-02-20T06:26:00.742Z,6.06
2023-02-20T06:27:03.068Z,5.96
2023-02-20T06:28:05.508Z,5.75
2023-02-20T06:29:07.818Z,5.65
2023-02-20T06:30:11.027Z,5.60
2023-02-20T06:31:13.937Z,5.68
2023-02-20T06:32:16.752Z,5.56
2023-02-20T06:33:18.998Z,5.64
2023-02-20T06:34:23.436Z,5.81
2023-02-20T06:35:25.630Z,5.75
2023-02-20T06:36:31.240Z,5.99
2023-02-20T06:37:33.546Z,5.99
2023-02-20T06:38:36.568Z,6.05
2023-02-20T06:39:39.888Z,6.07
2023-02-20T06:40:42.173Z,6.13
2023-02-20T06:41:45.223Z,6.13
2023-02-20T06:42:47.837Z,6.15
2023-02-20T06:43:50.288Z,6.18
2023-02-20T06:44:52.450Z,6.08
2023-02-20T06:45:54.606Z,6.00
2023-02-20T06:46:56.941Z,5.95
2023-02-20T06:47:59.258Z,5.99
2023-02-20T06:49:01.731Z,5.88
2023-02-20T06:50:04.848Z,5.92
2023-02-20T06:51:07.093Z,6.06
2023-02-20T06:52:10.265Z,6.22
2023-02-20T06:53:12.507Z,6.22
2023-02-20T06:54:14.788Z,6.25
2023-02-20T06:55:17.044Z,6.41
2023-02-20T06:56:22.279Z,6.48
2023-02-20T06:57:24.530Z,6.55
2023-02-20T06:58:26.760Z,6.37
2023-02-20T06:59:29.161Z,6.37
2023-02-20T07:00:31.491Z,6.48
2023-02-20T07:01:40.663Z,6.65
2023-02-20T07:02:42.954Z,6.76
2023-02-20T07:03:46.910Z,6.74
2023-02-20T07:04:49.851Z,6.87
2023-02-20T07:05:52.074Z,7.05
2023-02-20T07:06:54.712Z,6.85
2023-02-20T07:07:56.921Z,7.02
2023-02-20T07:08:59.152Z,7.14
2023-02-20T07:10:01.550Z,7.25
2023-02-20T07:11:04.095Z,7.32
2023-02-20T07:12:06.710Z,7.44
2023-02-20T07:13:08.960Z,7.49
2023-02-20T07:14:11.183Z,7.51
2023-02-20T07:15:13.648Z,7.45
2023-02-20T07:16:16.161Z,7.64
2023-02-20T07:17:18.524Z,7.52
2023-02-20T07:18:23.715Z,7.61
2023-02-20T07:19:25.857Z,7.62
2023-02-20T07:20:28.121Z,7.73
2023-02-20T07:21:30.334Z,7.72
2023-02-20T07:22:32.599Z,7.87
2023-02-20T07:23:34.930Z,8.00
2023-02-20T07:24:37.098Z,8.02
2023-02-20T07:25:39.284Z,8.21
2023-02-20T07:26:41.464Z,8.33
2023-02-20T07:27:43.703Z,8.39
2023-02-20T07:28:45.890Z,8.20
2023-02-20T07:29:49.557Z,8.31
2023-02-20T07:30:51.967Z,8.52
2023-02-20T07:31:54.281Z,8.61
2023-02-20T07:32:56.630Z,8.76
2023-02-20T07:33:59.313Z,8.71
2023-02-20T07:35:06.162Z,8.78
2023-02-20T07:36:11.965Z,8.85
2023-02-20T07:37:15.110Z,8.91
2023-02-20T07:38:17.449Z,9.18
2023-02-20T07:39:19.682Z,9.41
2023-02-20T07:40:22.187Z,9.59
2023-02-20T07:41:26.029Z,9.42
2023-02-20T07:42:28.284Z,9.63
2023-02-20T07:43:41.322Z,9.32
2023-02-20T07:44:46.702Z,9.16
2023-02-20T07:45:48.941Z,9.38
2023-02-20T07:46:51.279Z,9.59
2023-02-20T07:47:53.490Z,9.94
2023-02-20T07:48:55.710Z,10.15
2023-02-20T07:49:57.909Z,10.27
2023-02-20T07:51:00.140Z,10.48
2023-02-20T07:52:02.323Z,10.31
2023-02-20T07:53:04.608Z,10.04
2023-02-20T07:54:07.148Z,10.38
2023-02-20T07:55:09.512Z,10.54
2023-02-20T07:56:12.072Z,10.25
2023-02-20T07:57:15.704Z,10.52
2023-02-20T07:58:17.971Z,10.72
2023-02-20T07:59:20.268Z,10.87
2023-02-20T08:00:23.806Z,10.99
2023-02-20T08:01:26.228Z,11.14
2023-02-20T08:02:28.455Z,11.22
2023-02-20T08:03:30.638Z,10.72
2023-02-20T08:04:32.839Z,10.93
2023-02-20T08:05:48.076Z,11.02
2023-02-20T08:06:51.168Z,11.21
2023-02-20T08:07:54.579Z,11.19
2023-02-20T08:08:56.908Z,11.03
2023-02-20T08:09:59.220Z,11.27
2023-02-20T08:11:08.936Z,11.37
2023-02-20T08:12:13.007Z,11.16
2023-02-20T08:13:15.214Z,11.06
2023-02-20T08:14:17.990Z,11.26
2023-02-20T08:15:21.164Z,11.17
2023-02-20T08:16:23.415Z,11.34
2023-02-20T08:17:31.919Z,11.76
2023-02-20T08:18:39.671Z,11.98
2023-02-20T08:19:41.891Z,11.99
2023-02-20T08:20:44.163Z,11.38
2023-02-20T08:21:46.402Z,11.66
2023-02-20T08:22:50.179Z,11.52
2023-02-20T08:23:52.608Z,11.47
2023-02-20T08:24:54.956Z,11.03
2023-02-20T08:25:57.230Z,11.00
2023-02-20T08:26:59.492Z,11.05
2023-02-20T08:28:01.761Z,11.37
2023-02-20T08:29:04.016Z,11.03
2023-02-20T08:30:06.954Z,11.66
2023-02-20T08:31:09.897Z,11.72
2023-02-20T08:32:15.227Z,12.05
2023-02-20T08:33:18.703Z,11.95
2023-02-20T08:34:20.953Z,11.87
2023-02-20T08:35:24.935Z,11.64
2023-02-20T08:36:27.371Z,11.78
2023-02-20T08:37:29.628Z,11.82
2023-02-20T08:38:35.549Z,11.98
2023-02-20T08:39:37.964Z,11.88
2023-02-20T08:40:40.238Z,11.60
2023-02-20T08:41:46.237Z,11.87
2023-02-20T08:42:51.613Z,11.33
2023-02-20T08:43:53.877Z,11.10
2023-02-20T08:44:56.100Z,11.49
2023-02-20T08:45:58.378Z,11.41
2023-02-20T08:47:00.628Z,11.45
2023-02-20T08:48:03.166Z,11.69
2023-02-20T08:49:05.391Z,11.57
2023-02-20T08:50:07.646Z,11.94
2023-02-20T08:51:09.979Z,12.06
2023-02-20T08:52:12.234Z,11.95
2023-02-20T08:53:14.956Z,11.95
2023-02-20T08:54:17.226Z,12.53
2023-02-20T08:55:19.517Z,12.43
2023-02-20T08:56:22.245Z,12.27
2023-02-20T08:57:24.434Z,12.48
2023-02-20T08:58:27.040Z,12.36
2023-02-20T08:59:32.176Z,12.46
2023-02-20T09:00:34.604Z,12.08
2023-02-20T09:01:36.919Z,12.60
2023-02-20T09:02:39.286Z,12.51
2023-02-20T09:03:43.141Z,11.89
2023-02-20T09:04:46.142Z,12.61
2023-02-20T09:05:48.934Z,12.78
2023-02-20T09:06:51.217Z,13.04
2023-02-20T09:07:53.482Z,12.89
2023-02-20T09:08:55.989Z,12.66
2023-02-20T09:09:58.537Z,12.59
2023-02-20T09:11:00.956Z,12.23
2023-02-20T09:12:03.475Z,11.97
2023-02-20T09:13:05.795Z,11.69
2023-02-20T09:14:09.642Z,11.18
2023-02-20T09:15:12.913Z,11.71
2023-02-20T09:16:18.657Z,12.02
2023-02-20T09:17:20.930Z,11.98
2023-02-20T09:18:23.270Z,11.56
2023-02-20T09:19:25.505Z,11.62
2023-02-20T09:20:27.792Z,11.52
2023-02-20T09:21:30.025Z,11.72
2023-02-20T09:22:32.391Z,11.94
2023-02-20T09:23:34.572Z,12.01
2023-02-20T09:24:36.816Z,11.78
2023-02-20T09:25:39.007Z,11.78
2023-02-20T09:26:41.212Z,11.55
2023-02-20T09:27:43.459Z,11.29
2023-02-20T09:28:45.745Z,11.37
2023-02-20T09:29:47.992Z,11.39
2023-02-20T09:30:50.217Z,11.18
2023-02-20T09:31:52.743Z,11.10
2023-02-20T09:32:55.196Z,11.05
2023-02-20T09:33:57.562Z,10.93
2023-02-20T09:34:59.833Z,11.04
2023-02-20T09:36:02.104Z,11.00
2023-02-20T09:37:04.775Z,10.99
2023-02-20T09:38:07.689Z,10.96
2023-02-20T09:39:10.030Z,10.57
2023-02-20T09:40:14.576Z,10.73
2023-02-20T09:41:41.719Z,10.40
2023-02-20T09:42:53.437Z,10.46
2023-02-20T09:44:23.376Z,11.05
2023-02-20T09:45:29.476Z,11.07
2023-02-20T09:46:31.750Z,11.08
2023-02-20T09:47:47.222Z,11.53
2023-02-20T09:49:01.334Z,11.49
2023-02-20T09:50:12.991Z,11.67
2023-02-20T09:51:21.392Z,11.80
2023-02-20T09:52:25.532Z,12.23
2023-02-20T09:54:06.244Z,12.88
2023-02-20T09:55:14.481Z,12.74
2023-02-20T09:56:20.891Z,12.86
2023-02-20T09:57:27.102Z,12.36
2023-02-20T09:58:35.020Z,12.43
2023-02-20T09:59:46.208Z,12.90
2023-02-20T10:00:48.754Z,12.86
2023-02-20T10:02:04.852Z,13.16
2023-02-20T10:03:19.824Z,13.51
2023-02-20T10:04:30.185Z,12.72
2023-02-20T10:05:33.402Z,12.70
2023-02-20T10:06:35.877Z,12.88
2023-02-20T10:07:41.920Z,12.97
2023-02-20T10:08:44.717Z,13.41
2023-02-20T10:09:47.450Z,13.44
2023-02-20T10:10:52.039Z,13.30
2023-02-20T10:12:00.720Z,13.32
2023-02-20T10:13:52.917Z,12.90
2023-02-20T10:15:22.623Z,13.23
2023-02-20T10:16:37.111Z,13.15
2023-02-20T10:18:02.339Z,12.87
2023-02-20T10:19:33.614Z,13.00
2023-02-20T10:20:47.227Z,13.41
2023-02-20T10:22:05.602Z,12.67
2023-02-20T10:23:23.552Z,12.55
2023-02-20T10:24:42.157Z,13.11
2023-02-20T10:25:51.497Z,12.95
2023-02-20T10:27:06.268Z,12.68
2023-02-20T10:28:12.961Z,12.40
2023-02-20T10:29:20.547Z,12.31
2023-02-20T10:30:33.787Z,12.62
2023-02-20T10:31:44.973Z,12.62
2023-02-20T10:32:56.873Z,12.49
2023-02-20T10:34:23.658Z,12.71
2023-02-20T10:35:41.708Z,12.92
2023-02-20T10:36:51.674Z,12.81
2023-02-20T10:37:58.141Z,12.67
2023-02-20T10:39:08.306Z,12.60
2023-02-20T10:40:33.505Z,12.84
2023-02-20T10:42:12.669Z,13.17
2023-02-20T10:43:20.890Z,13.22
2023-02-20T10:44:51.934Z,12.99
2023-02-20T10:46:04.060Z,12.64
2023-02-20T10:47:31.405Z,12.48
2023-02-20T10:48:35.402Z,12.92
2023-02-20T10:50:01.538Z,12.33
2023-02-20T10:51:13.205Z,12.68
2023-02-20T10:52:33.737Z,12.85
2023-02-20T10:53:55.222Z,13.11
2023-02-20T10:55:08.949Z,12.94
2023-02-20T10:56:37.247Z,13.26
2023-02-20T10:57:51.375Z,12.95
2023-02-20T10:59:11.453Z,12.87
2023-02-20T11:00:22.714Z,13.30
2023-02-20T11:01:26.690Z,13.61
2023-02-20T11:02:36.153Z,13.49
2023-02-20T11:03:48.598Z,12.44
2023-02-20T11:04:54.705Z,12.29
2023-02-20T11:06:01.564Z,12.48
2023-02-20T11:07:15.794Z,12.85
2023-02-20T11:08:20.961Z,13.07
2023-02-20T11:09:23.457Z,12.70
2023-02-20T11:10:25.747Z,13.07
2023-02-20T11:11:39.888Z,13.05
2023-02-20T11:12:50.851Z,13.36
2023-02-20T11:13:53.201Z,12.76
2023-02-20T11:15:05.132Z,12.98
2023-02-20T11:16:21.474Z,12.91
2023-02-20T11:17:27.733Z,12.85
2023-02-20T11:18:34.902Z,12.83
2023-02-20T11:19:42.154Z,13.14
2023-02-20T11:20:49.158Z,13.08
2023-02-20T11:21:52.306Z,13.32
2023-02-20T11:22:54.622Z,13.16
2023-02-20T11:23:57.044Z,13.14
2023-02-20T11:25:20.968Z,12.63
2023-02-20T11:26:30.976Z,12.74
2023-02-20T11:27:35.072Z,12.31
2023-02-20T11:28:38.174Z,12.66
2023-02-20T11:29:47.021Z,12.91
2023-02-20T11:31:02.418Z,12.88
2023-02-20T11:32:25.578Z,13.00
2023-02-20T11:33:30.920Z,13.00
2023-02-20T11:34:33.217Z,13.07
2023-02-20T11:35:39.091Z,13.40
2023-02-20T11:36:46.485Z,13.19
2023-02-20T11:38:19.827Z,13.20
2023-02-20T11:39:28.378Z,13.18
2023-02-20T11:40:35.007Z,12.71
2023-02-20T11:41:38.300Z,12.72
2023-02-20T11:42:41.032Z,12.84
2023-02-20T11:44:00.225Z,13.03
2023-02-20T11:45:26.652Z,12.88
2023-02-20T11:46:28.939Z,13.04
2023-02-20T11:47:31.261Z,13.30
2023-02-20T11:48:33.470Z,13.02
2023-02-20T11:49:36.657Z,13.06
2023-02-20T11:50:56.924Z,12.76
2023-02-20T11:52:20.559Z,13.09
2023-02-20T11:53:33.645Z,12.89
2023-02-20T11:54:35.904Z,12.99
2023-02-20T11:55:39.948Z,12.77
2023-02-20T11:56:58.080Z,12.76
2023-02-20T11:58:01.166Z,12.84
2023-02-20T11:59:26.510Z,12.99
2023-02-20T12:00:44.131Z,12.74
2023-02-20T12:01:59.201Z,13.18
2023-02-20T12:03:08.821Z,13.43
2023-02-20T12:04:23.473Z,13.37
2023-02-20T12:05:46.248Z,13.62
2023-02-20T12:06:48.765Z,13.36
2023-02-20T12:07:55.464Z,12.99
2023-02-20T12:09:01.909Z,13.32
2023-02-20T12:10:14.266Z,12.80
2023-02-20T12:11:20.322Z,13.04
2023-02-20T12:12:23.852Z,13.27
2023-02-20T12:13:26.135Z,13.05
2023-02-20T12:14:28.392Z,13.09
2023-02-20T12:15:30.684Z,13.14
2023-02-20T12:16:53.862Z,13.27
2023-02-20T12:18:14.176Z,13.48
2023-02-20T12:19:21.795Z,13.69
2023-02-20T12:20:30.213Z,13.78
2023-02-20T12:21:41.121Z,13.66
2023-02-20T12:22:59.449Z,13.60
2023-02-20T12:24:23.229Z,13.47
2023-02-20T12:25:46.045Z,13.47
2023-02-20T12:26:59.181Z,13.74
2023-02-20T12:28:29.173Z,13.73
2023-02-20T12:29:41.777Z,13.90
2023-02-20T12:31:05.577Z,13.51
2023-02-20T12:32:46.341Z,13.42
2023-02-20T12:34:14.507Z,13.59
2023-02-20T12:35:35.533Z,13.57
2023-02-20T12:36:45.571Z,13.47
2023-02-20T12:37:54.688Z,13.28
2023-02-20T12:39:10.044Z,13.13
2023-02-20T12:40:41.822Z,12.95
2023-02-20T12:42:14.030Z,13.34
2023-02-20T12:43:27.210Z,13.64
2023-02-20T12:44:59.945Z,13.51
2023-02-20T12:46:43.597Z,13.64
2023-02-20T12:47:46.547Z,13.47
2023-02-20T12:49:17.997Z,13.65
2023-02-20T12:50:31.941Z,13.67
2023-02-20T12:51:58.358Z,13.34
2023-02-20T12:53:20.019Z,13.10
2023-02-20T12:54:47.300Z,13.04
2023-02-20T12:56:29.534Z,13.13
2023-02-20T12:57:41.474Z,13.28
2023-02-20T12:58:53.381Z,13.28
2023-02-20T12:59:59.818Z,13.34
2023-02-20T13:01:06.429Z,13.23
2023-02-20T13:02:39.426Z,13.16
2023-02-20T13:03:58.518Z,13.31
2023-02-20T13:05:04.607Z,13.43
2023-02-20T13:06:08.053Z,13.42
2023-02-20T13:07:27.791Z,13.40
2023-02-20T13:08:36.592Z,13.50
2023-02-20T13:09:48.023Z,13.54
2023-02-20T13:11:02.690Z,13.55
2023-02-20T13:12:14.397Z,13.58
2023-02-20T13:13:18.584Z,13.46
2023-02-20T13:14:39.435Z,13.52
2023-02-20T13:16:04.786Z,13.72
2023-02-20T13:17:15.539Z,13.75
2023-02-20T13:18:36.209Z,13.81
2023-02-20T13:20:00.732Z,13.59
2023-02-20T13:21:08.797Z,13.48
2023-02-20T13:22:11.122Z,13.35
2023-02-20T13:23:18.111Z,13.60
2023-02-20T13:24:20.323Z,13.66
2023-02-20T13:25:41.329Z,13.51
2023-02-20T13:26:48.115Z,13.47
2023-02-20T13:28:00.784Z,13.59
2023-02-20T13:29:18.063Z,13.84
2023-02-20T13:30:21.690Z,13.82
2023-02-20T13:31:48.360Z,13.94
2023-02-20T13:33:17.886Z,14.10
2023-02-20T13:34:20.034Z,14.05
2023-02-20T13:35:49.879Z,14.03
2023-02-20T13:36:52.182Z,14.11
2023-02-20T13:37:55.759Z,13.82
2023-02-20T13:39:25.183Z,13.82
2023-02-20T13:40:29.479Z,13.86
2023-02-20T13:41:55.510Z,13.76
2023-02-20T13:43:12.743Z,13.78
2023-02-20T13:44:29.883Z,13.94
2023-02-20T13:45:46.095Z,13.85
2023-02-20T13:47:27.082Z,13.85
2023-02-20T13:48:30.098Z,13.78
2023-02-20T13:49:50.142Z,13.80
2023-02-20T13:51:15.338Z,13.83
2023-02-20T13:52:29.780Z,13.64
2023-02-20T13:53:32.048Z,13.54
2023-02-20T13:54:34.503Z,13.68
2023-02-20T13:55:37.633Z,13.59
2023-02-20T13:57:03.074Z,13.67
2023-02-20T13:58:12.481Z,13.64
2023-02-20T13:59:18.211Z,13.75
2023-02-20T14:00:42.180Z,13.59
2023-02-20T14:01:54.175Z,13.78
2023-02-20T14:02:56.523Z,13.78
2023-02-20T14:04:04.430Z,13.73
2023-02-20T14:05:10.624Z,13.60
2023-02-20T14:06:18.991Z,13.55
2023-02-20T14:07:37.529Z,13.47
2023-02-20T14:08:42.395Z,13.71
2023-02-20T14:09:44.665Z,13.65
2023-02-20T14:10:49.641Z,13.81
2023-02-20T14:11:55.851Z,13.87
2023-02-20T14:13:30.922Z,13.84
2023-02-20T14:14:45.854Z,13.83
2023-02-20T14:15:59.782Z,13.51
2023-02-20T14:17:19.405Z,13.57
2023-02-20T14:18:27.011Z,13.75
2023-02-20T14:19:30.015Z,13.68
2023-02-20T14:20:36.094Z,13.69
2023-02-20T14:21:38.569Z,13.72
2023-02-20T14:22:40.815Z,13.74
2023-02-20T14:23:43.499Z,13.74
2023-02-20T14:24:46.116Z,13.62
2023-02-20T14:26:01.040Z,13.70
2023-02-20T14:27:27.180Z,13.72
2023-02-20T14:28:31.826Z,13.81
2023-02-20T14:29:36.519Z,13.84
2023-02-20T14:30:39.577Z,13.81
2023-02-20T14:31:43.154Z,13.54
2023-02-20T14:32:51.400Z,13.47
2023-02-20T14:34:00.856Z,13.34
2023-02-20T14:35:12.812Z,13.46
2023-02-20T14:36:43.354Z,13.45
2023-02-20T14:37:56.626Z,13.51
2023-02-20T14:39:18.504Z,13.61
2023-02-20T14:40:44.147Z,13.59
2023-02-20T14:41:56.138Z,13.63
2023-02-20T14:43:02.522Z,13.51
2023-02-20T14:44:13.838Z,13.53
2023-02-20T14:45:20.639Z,13.40
2023-02-20T14:46:28.823Z,13.47
2023-02-20T14:47:35.635Z,13.37
2023-02-20T14:48:41.808Z,13.31
2023-02-20T14:49:45.078Z,13.41
2023-02-20T14:50:47.293Z,13.42
2023-02-20T14:51:49.861Z,13.42
2023-02-20T14:53:15.700Z,13.36
2023-02-20T14:54:24.489Z,13.67
2023-02-20T14:55:26.956Z,13.71
2023-02-20T14:56:33.997Z,13.89